Time;durP1;ratioP1;P1;durP2;ratioP2;P2;SDS_P1;SDS_P2;PMS_P1;PMS_P2;Temp;Humidity;BMP_temperature;BMP_pressure;BME280_temperature;BME280_humidity;BME280_pressure;Samples;Min_cycle;Max_cycle;Signal;HPM_P1;HPM_P2
2021/06/17 00:02:06;;;;;;;9.55;7.07;;;21.60;99.90;;;;;;5096073;28;20040;-59
2021/06/17 00:04:33;;;;;;;11.23;6.63;;;21.60;99.90;;;;;;5095846;28;20067;-59
2021/06/17 00:06:58;;;;;;;8.30;6.80;;;21.50;99.90;;;;;;5095793;28;20505;-60
2021/06/17 00:09:25;;;;;;;14.32;7.15;;;21.50;99.90;;;;;;5095818;28;20473;-60
2021/06/17 00:11:51;;;;;;;12.32;6.90;;;21.40;99.90;;;;;;5095932;28;20048;-59
2021/06/17 00:14:18;;;;;;;10.88;7.00;;;21.40;99.90;;;;;;5095835;28;20047;-60
2021/06/17 00:16:44;;;;;;;12.77;7.38;;;21.40;99.90;;;;;;5095727;28;20390;-60
2021/06/17 00:19:10;;;;;;;11.05;8.57;;;21.40;99.90;;;;;;5096093;28;20040;-59
2021/06/17 00:21:36;;;;;;;14.57;8.15;;;21.30;99.90;;;;;;5095544;28;20047;-60
2021/06/17 00:24:02;;;;;;;10.02;7.53;;;21.30;99.90;;;;;;5095874;28;20044;-60
2021/06/17 00:26:27;;;;;;;9.80;7.10;;;21.30;99.90;;;;;;5095931;28;20040;-59
2021/06/17 00:28:53;;;;;;;14.25;7.25;;;21.30;99.90;;;;;;5095355;28;20036;-59
2021/06/17 00:31:19;;;;;;;9.60;7.35;;;21.20;99.90;;;;;;5095531;28;20100;-59
2021/06/17 00:33:45;;;;;;;12.10;7.35;;;21.20;99.90;;;;;;5095668;28;20398;-59
2021/06/17 00:36:10;;;;;;;11.18;6.70;;;21.20;99.90;;;;;;5095495;28;20040;-60
2021/06/17 00:38:36;;;;;;;9.38;8.25;;;21.20;99.90;;;;;;5095495;28;20541;-59
2021/06/17 00:41:02;;;;;;;8.77;7.30;;;21.20;99.90;;;;;;5095564;28;20044;-60
2021/06/17 00:43:28;;;;;;;13.18;8.23;;;21.20;99.90;;;;;;5095139;28;20127;-59
2021/06/17 00:45:54;;;;;;;10.20;7.47;;;21.20;99.90;;;;;;5095357;28;20119;-59
2021/06/17 00:48:21;;;;;;;9.75;7.43;;;21.10;99.90;;;;;;5095288;28;20047;-60
2021/06/17 00:50:57;;;;;;;9.00;7.10;;;21.10;99.90;;;;;;5095117;28;20039;-60
2021/06/17 00:53:31;;;;;;;11.43;8.27;;;21.10;99.90;;;;;;5095083;28;20470;-59
2021/06/17 00:55:58;;;;;;;8.73;7.80;;;21.00;99.90;;;;;;5094962;28;20040;-59
2021/06/17 00:58:24;;;;;;;9.45;7.90;;;21.00;99.90;;;;;;5095012;28;20169;-59
2021/06/17 01:00:50;;;;;;;12.95;8.82;;;21.00;99.90;;;;;;5094957;28;20136;-59
2021/06/17 01:03:17;;;;;;;8.75;7.80;;;21.00;99.90;;;;;;5094603;28;20410;-60
2021/06/17 01:05:43;;;;;;;11.60;7.88;;;21.00;99.90;;;;;;5094743;28;20036;-59
2021/06/17 01:08:46;;;;;;;10.80;8.02;;;20.90;99.90;;;;;;5095220;28;20044;-59
2021/06/17 01:11:47;;;;;;;11.85;9.18;;;20.90;99.90;;;;;;5094989;28;20055;-60
2021/06/17 01:14:21;;;;;;;11.75;8.45;;;20.90;99.90;;;;;;5095204;28;20044;-59
2021/06/17 01:17:06;;;;;;;14.10;8.93;;;20.90;99.90;;;;;;5095017;28;20044;-59
2021/06/17 01:19:36;;;;;;;11.88;8.35;;;20.90;99.90;;;;;;5094686;28;20117;-59
2021/06/17 01:22:15;;;;;;;10.48;8.48;;;20.80;99.90;;;;;;5094407;28;20135;-59
2021/06/17 01:24:44;;;;;;;;;;;20.80;99.90;;;;;;5094954;28;20047;-59
2021/06/17 01:27:34;;;;;;;12.35;9.43;;;20.80;99.90;;;;;;5094566;28;20293;-59
2021/06/17 01:30:19;;;;;;;17.05;10.52;;;20.80;99.90;;;;;;5094516;28;20040;-59
2021/06/17 01:32:49;;;;;;;14.30;9.70;;;20.80;99.90;;;;;;5093302;28;20486;-59
2021/06/17 01:35:18;;;;;;;13.02;9.65;;;20.70;99.90;;;;;;5094560;28;20072;-59
2021/06/17 01:37:46;;;;;;;15.70;10.13;;;20.70;99.90;;;;;;5095026;28;20036;-59
2021/06/17 01:40:12;;;;;;;17.77;10.48;;;20.70;99.90;;;;;;5094074;28;20051;-59
2021/06/17 01:42:42;;;;;;;14.75;10.32;;;20.70;99.90;;;;;;5094442;28;20046;-60
2021/06/17 01:45:09;;;;;;;11.98;10.68;;;20.70;99.90;;;;;;5094295;28;20039;-59
2021/06/17 01:47:36;;;;;;;13.30;10.57;;;20.70;99.90;;;;;;5094223;28;20501;-59
2021/06/17 01:50:04;;;;;;;18.77;11.95;;;20.70;99.90;;;;;;5094349;28;20040;-59
2021/06/17 01:52:31;;;;;;;15.73;11.57;;;20.60;99.90;;;;;;5094390;28;20390;-59
2021/06/17 01:55:00;;;;;;;11.95;10.35;;;20.60;99.90;;;;;;5094277;28;20044;-59
2021/06/17 01:57:26;;;;;;;27.58;12.80;;;20.60;99.90;;;;;;5094337;28;20463;-59
2021/06/17 01:59:53;;;;;;;19.48;11.98;;;20.60;99.90;;;;;;5094337;28;20047;-59
2021/06/17 02:02:20;;;;;;;14.05;12.55;;;20.60;99.90;;;;;;5094239;28;20051;-59
2021/06/17 02:04:51;;;;;;;16.23;11.90;;;20.60;99.90;;;;;;5094035;28;20047;-59
2021/06/17 02:07:20;;;;;;;14.10;11.55;;;20.50;99.90;;;;;;5093909;28;20058;-59
2021/06/17 02:09:50;;;;;;;14.43;11.88;;;20.50;99.90;;;;;;5093675;28;20568;-59
2021/06/17 02:12:16;;;;;;;15.75;12.55;;;20.50;99.90;;;;;;5093604;28;20051;-59
2021/06/17 02:14:44;;;;;;;14.23;12.10;;;20.50;99.90;;;;;;5094204;28;20044;-60
2021/06/17 02:17:12;;;;;;;13.65;12.35;;;20.50;99.90;;;;;;5093694;28;20473;-59
2021/06/17 02:19:40;;;;;;;14.75;12.73;;;20.50;99.90;;;;;;5093554;28;20497;-59
2021/06/17 02:22:07;;;;;;;15.80;13.48;;;20.50;99.90;;;;;;5093276;28;20067;-58
2021/06/17 02:24:36;;;;;;;14.55;12.98;;;20.50;99.90;;;;;;5093689;28;20071;-59
2021/06/17 02:27:10;;;;;;;15.77;12.82;;;20.50;99.90;;;;;;5093649;28;20445;-59
2021/06/17 02:29:44;;;;;;;15.57;14.07;;;20.60;99.90;;;;;;5093347;28;20466;-59
2021/06/17 02:32:17;;;;;;;14.57;13.07;;;20.60;99.90;;;;;;5093483;28;20055;-59
2021/06/17 02:34:44;;;;;;;15.82;12.95;;;20.60;99.90;;;;;;5093428;28;20150;-59
2021/06/17 02:37:10;;;;;;;17.77;14.27;;;20.60;99.90;;;;;;5093770;28;20135;-59
2021/06/17 02:39:37;;;;;;;15.68;14.02;;;20.60;99.90;;;;;;5093425;28;20043;-59
2021/06/17 02:42:03;;;;;;;17.58;14.18;;;20.60;99.90;;;;;;5093181;28;20067;-59
2021/06/17 02:44:30;;;;;;;18.27;14.38;;;20.60;99.90;;;;;;5093220;28;20477;-59
2021/06/17 02:46:56;;;;;;;18.02;14.70;;;20.60;99.90;;;;;;5093042;28;20036;-59
2021/06/17 02:49:22;;;;;;;17.40;13.95;;;20.60;99.90;;;;;;5093037;28;20047;-59
2021/06/17 02:51:48;;;;;;;15.55;13.95;;;20.50;99.90;;;;;;5092820;28;20043;-59
2021/06/17 02:54:19;;;;;;;17.08;14.13;;;20.50;99.90;;;;;;5093193;28;20488;-59
2021/06/17 02:57:06;;;;;;;19.75;15.15;;;20.50;99.90;;;;;;5092964;28;20482;-59
2021/06/17 02:59:32;;;;;;;16.75;15.00;;;20.50;99.90;;;;;;5092891;28;20044;-59
2021/06/17 03:02:05;;;;;;;20.10;14.68;;;20.50;99.90;;;;;;5092678;28;20058;-59
2021/06/17 03:04:44;;;;;;;17.55;15.48;;;20.50;99.90;;;;;;5093022;28;20055;-59
2021/06/17 03:07:17;;;;;;;19.98;15.20;;;20.50;99.90;;;;;;5092933;28;20043;-59
2021/06/17 03:09:46;;;;;;;22.33;16.13;;;20.50;99.90;;;;;;5092522;28;20500;-59
2021/06/17 03:12:17;;;;;;;23.58;17.08;;;20.50;99.90;;;;;;5092693;28;20067;-59
2021/06/17 03:14:48;;;;;;;16.92;15.32;;;20.50;99.90;;;;;;5092896;28;20497;-59
2021/06/17 03:17:17;;;;;;;19.00;15.90;;;20.50;99.90;;;;;;5092484;28;20039;-59
2021/06/17 03:19:46;;;;;;;19.48;16.48;;;20.50;99.90;;;;;;5092757;28;20090;-59
2021/06/17 03:22:15;;;;;;;18.85;15.30;;;20.50;99.90;;;;;;5092070;28;20512;-59
2021/06/17 03:24:45;;;;;;;18.88;16.90;;;20.50;99.90;;;;;;5092243;28;20071;-59
2021/06/17 03:27:11;;;;;;;20.33;17.50;;;20.50;99.90;;;;;;5092515;28;20032;-59
2021/06/17 03:29:43;;;;;;;20.52;16.27;;;20.50;99.90;;;;;;5092237;28;20493;-59
2021/06/17 03:32:10;;;;;;;19.85;17.73;;;20.50;99.90;;;;;;5092396;28;20093;-59
2021/06/17 03:34:38;;;;;;;19.65;17.63;;;20.50;99.90;;;;;;5092410;28;20036;-59
2021/06/17 03:37:05;;;;;;;20.92;18.38;;;20.50;99.90;;;;;;5092008;28;20036;-58
2021/06/17 03:39:31;;;;;;;22.70;18.25;;;20.50;99.90;;;;;;5092318;28;20044;-59
2021/06/17 03:42:00;;;;;;;20.48;18.17;;;20.50;99.90;;;;;;5092220;28;20040;-59
2021/06/17 03:44:27;;;;;;;19.67;17.60;;;20.50;99.90;;;;;;5091557;28;20119;-59
2021/06/17 03:46:56;;;;;;;21.65;19.48;;;20.50;99.90;;;;;;5089686;28;20042;-59
2021/06/17 03:49:23;;;;;;;21.65;17.98;;;20.50;99.90;;;;;;5090779;28;20032;-60
2021/06/17 03:51:50;;;;;;;20.35;17.88;;;20.60;99.90;;;;;;5091461;28;20500;-56
2021/06/17 03:54:25;;;;;;;19.85;17.77;;;20.60;99.90;;;;;;5091904;28;20741;-57
2021/06/17 03:57:00;;;;;;;20.20;17.90;;;20.60;99.90;;;;;;5091434;28;20055;-57
2021/06/17 03:59:29;;;;;;;19.98;17.95;;;20.60;99.90;;;;;;5089041;28;20040;-57
2021/06/17 04:01:56;;;;;;;20.27;17.88;;;20.60;99.90;;;;;;5091479;28;20075;-56
2021/06/17 04:04:23;;;;;;;20.90;17.80;;;20.60;99.90;;;;;;5091874;28;20048;-56
2021/06/17 04:06:55;;;;;;;20.80;18.75;;;20.60;99.90;;;;;;5091991;28;20040;-56
2021/06/17 04:09:28;;;;;;;21.25;17.65;;;20.60;99.90;;;;;;5091963;28;20470;-56
2021/06/17 04:11:59;;;;;;;18.58;16.65;;;20.70;99.90;;;;;;5091920;28;20036;-57
2021/06/17 04:14:29;;;;;;;19.38;17.50;;;20.70;99.90;;;;;;5091720;28;20044;-56
2021/06/17 04:16:56;;;;;;;20.77;18.77;;;20.70;99.90;;;;;;5091624;28;20060;-57
2021/06/17 04:19:25;;;;;;;20.70;17.38;;;20.70;99.90;;;;;;5092055;28;20093;-56
2021/06/17 04:21:54;;;;;;;19.48;17.52;;;20.80;99.90;;;;;;5091137;28;20048;-57
2021/06/17 04:24:22;;;;;;;;;;;20.80;99.90;;;;;;5092161;28;20044;-57
2021/06/17 04:26:49;;;;;;;19.48;17.48;;;20.80;99.90;;;;;;5091747;28;19950;-56
2021/06/17 04:29:16;;;;;;;18.17;16.35;;;20.90;99.90;;;;;;5091868;28;20036;-57
2021/06/17 04:31:44;;;;;;;19.63;17.65;;;20.90;99.90;;;;;;5091811;28;20052;-57
2021/06/17 04:34:11;;;;;;;20.08;16.88;;;20.90;99.90;;;;;;5091839;28;20062;-57
2021/06/17 04:36:38;;;;;;;20.10;18.02;;;21.00;99.90;;;;;;5091910;28;20090;-57
2021/06/17 04:39:05;;;;;;;21.67;19.17;;;21.00;99.90;;;;;;5092429;28;20047;-56
2021/06/17 04:41:31;;;;;;;21.15;19.00;;;21.00;99.90;;;;;;5095410;28;20046;-57
2021/06/17 04:43:59;;;;;;;19.48;17.30;;;21.10;99.90;;;;;;5095365;28;20036;-56
2021/06/17 04:46:25;;;;;;;19.23;17.25;;;21.10;99.90;;;;;;5095580;28;20050;-57
2021/06/17 04:48:53;;;;;;;22.27;18.55;;;21.20;99.90;;;;;;5095635;28;20043;-56
2021/06/17 04:51:19;;;;;;;20.33;16.58;;;21.30;99.90;;;;;;5095364;28;20039;-56
2021/06/17 04:53:44;;;;;;;17.48;15.23;;;21.40;99.90;;;;;;5094212;28;20044;-57
2021/06/17 04:56:10;;;;;;;16.70;14.93;;;21.50;99.90;;;;;;5095099;28;20044;-56
2021/06/17 04:58:36;;;;;;;19.60;16.30;;;21.50;99.90;;;;;;5093973;28;20059;-56
2021/06/17 05:01:05;;;;;;;17.52;15.77;;;21.60;99.90;;;;;;5094676;28;20036;-56
2021/06/17 05:03:32;;;;;;;17.23;15.13;;;21.70;99.90;;;;;;5094764;28;20447;-57
2021/06/17 05:06:00;;;;;;;17.98;16.15;;;21.70;99.90;;;;;;5094835;28;20040;-56
2021/06/17 05:10:55;;;;;;;16.05;14.55;;;21.80;99.90;;;;;;5094844;28;20052;-57
2021/06/17 05:13:24;;;;;;;21.83;16.23;;;21.90;99.90;;;;;;5095077;28;20104;-57
2021/06/17 05:15:53;;;;;;;22.80;15.65;;;22.00;99.90;;;;;;5094729;28;20035;-57
2021/06/17 05:18:22;;;;;;;17.35;15.35;;;22.00;99.90;;;;;;5094661;28;20048;-57
2021/06/17 05:20:49;;;;;;;16.50;14.98;;;22.10;99.90;;;;;;5094471;28;20041;-57
2021/06/17 05:23:18;;;;;;;16.20;14.18;;;22.10;99.90;;;;;;5094667;28;20485;-56
2021/06/17 05:25:45;;;;;;;16.75;15.07;;;22.20;99.90;;;;;;5094558;28;20382;-57
2021/06/17 05:28:17;;;;;;;16.63;14.98;;;22.20;99.90;;;;;;5094595;28;20054;-57
2021/06/17 05:30:43;;;;;;;17.10;14.40;;;22.30;99.90;;;;;;5094517;28;20123;-57
2021/06/17 05:33:09;;;;;;;18.80;14.77;;;22.40;99.90;;;;;;5094609;28;20044;-57
2021/06/17 05:35:35;;;;;;;16.00;13.85;;;22.40;99.90;;;;;;5094318;28;20046;-56
2021/06/17 05:38:01;;;;;;;20.27;14.30;;;22.50;99.90;;;;;;5094243;28;20105;-56
2021/06/17 05:40:27;;;;;;;15.23;13.63;;;22.60;99.90;;;;;;5094529;28;20072;-56
2021/06/17 05:42:52;;;;;;;14.77;13.43;;;22.60;99.90;;;;;;5094114;28;20129;-57
2021/06/17 05:45:18;;;;;;;15.60;13.07;;;22.70;99.90;;;;;;5094442;28;20040;-56
2021/06/17 05:47:44;;;;;;;15.68;14.25;;;22.80;99.90;;;;;;5094038;28;20071;-56
2021/06/17 05:50:10;;;;;;;16.20;13.70;;;22.90;99.90;;;;;;5093774;28;20101;-57
2021/06/17 05:52:36;;;;;;;14.95;13.35;;;22.90;99.90;;;;;;5093879;28;20105;-57
2021/06/17 05:55:02;;;;;;;17.23;12.77;;;23.10;99.90;;;;;;5093793;28;20044;-57
2021/06/17 05:57:28;;;;;;;14.98;13.35;;;23.10;99.90;;;;;;5094139;28;20072;-57
2021/06/17 05:59:53;;;;;;;14.68;13.18;;;23.20;99.90;;;;;;5093969;28;20078;-57
2021/06/17 06:02:23;;;;;;;15.18;12.80;;;23.30;99.90;;;;;;5093683;28;20371;-57
2021/06/17 06:04:53;;;;;;;19.30;12.60;;;23.40;99.90;;;;;;5093819;28;20493;-57
2021/06/17 06:07:19;;;;;;;16.63;13.05;;;23.50;99.90;;;;;;5093594;28;20043;-57
2021/06/17 06:09:45;;;;;;;14.30;12.80;;;23.60;99.90;;;;;;5093772;28;20075;-57
2021/06/17 06:12:11;;;;;;;13.35;12.05;;;23.70;99.90;;;;;;5093996;28;20103;-57
2021/06/17 06:14:37;;;;;;;15.88;12.23;;;23.80;99.90;;;;;;5093791;28;20047;-57
2021/06/17 06:17:04;;;;;;;15.63;12.32;;;23.90;99.90;;;;;;5093799;28;20155;-57
2021/06/17 06:19:31;;;;;;;13.77;12.38;;;24.10;99.90;;;;;;5084563;28;20056;-57
2021/06/17 06:21:57;;;;;;;15.98;11.00;;;24.10;99.90;;;;;;5088390;28;20047;-57
2021/06/17 06:24:23;;;;;;;15.07;11.93;;;24.30;99.90;;;;;;5093438;28;20078;-57
2021/06/17 06:26:49;;;;;;;12.88;11.10;;;24.40;99.90;;;;;;5073166;28;20060;-57
2021/06/17 06:29:15;;;;;;;16.02;12.00;;;24.50;99.90;;;;;;5073023;28;20041;-57
2021/06/17 06:31:41;;;;;;;14.18;12.35;;;24.50;99.90;;;;;;5081850;28;20099;-57
2021/06/17 06:34:07;;;;;;;17.08;11.23;;;24.60;99.90;;;;;;5092132;28;20074;-57
2021/06/17 06:36:32;;;;;;;11.60;10.40;;;24.70;99.90;;;;;;5091886;28;20040;-58
2021/06/17 06:38:58;;;;;;;16.55;11.20;;;24.90;99.90;;;;;;5093357;28;20048;-57
2021/06/17 06:41:24;;;;;;;12.35;11.02;;;25.10;99.90;;;;;;5093276;28;20044;-57
2021/06/17 06:43:49;;;;;;;15.10;11.25;;;25.20;99.90;;;;;;5093143;28;20048;-57
2021/06/17 06:46:15;;;;;;;15.77;9.77;;;25.30;99.90;;;;;;5092821;28;20097;-57
2021/06/17 06:48:41;;;;;;;11.32;9.43;;;25.50;99.90;;;;;;5092745;28;20419;-57
2021/06/17 06:51:07;;;;;;;10.57;8.45;;;25.70;99.90;;;;;;5092943;28;20108;-57
2021/06/17 06:53:33;;;;;;;13.40;8.65;;;25.90;99.90;;;;;;5092616;28;20051;-57
2021/06/17 06:55:58;;;;;;;12.93;8.57;;;26.10;99.90;;;;;;5092750;28;20040;-57
2021/06/17 06:58:24;;;;;;;11.45;8.10;;;26.20;99.90;;;;;;5092836;28;20047;-57
2021/06/17 07:00:53;;;;;;;8.13;7.20;;;26.30;99.90;;;;;;5090958;28;20097;-57
2021/06/17 07:03:19;;;;;;;8.82;7.93;;;26.40;99.90;;;;;;5083978;28;20052;-57
2021/06/17 07:05:44;;;;;;;11.25;7.75;;;26.50;99.90;;;;;;5086212;28;20039;-57
2021/06/17 07:08:10;;;;;;;9.18;7.80;;;26.70;99.90;;;;;;5092511;28;20465;-57
2021/06/17 07:10:38;;;;;;;11.68;7.57;;;26.80;99.90;;;;;;5086821;28;20051;-57
2021/06/17 07:13:04;;;;;;;18.05;8.18;;;26.80;99.90;;;;;;5072282;28;20075;-57
2021/06/17 07:15:30;;;;;;;14.75;7.80;;;27.00;99.90;;;;;;5072580;28;20054;-57
2021/06/17 07:17:55;;;;;;;11.40;7.68;;;27.10;99.90;;;;;;5072283;28;20452;-57
2021/06/17 07:20:22;;;;;;;8.85;7.05;;;27.10;99.90;;;;;;5072094;28;20049;-57
2021/06/17 07:22:47;;;;;;;8.50;6.32;;;27.30;99.90;;;;;;5085568;28;20052;-57
2021/06/17 07:25:13;;;;;;;8.43;7.35;;;27.60;99.90;;;;;;5073761;28;20092;-57
2021/06/17 07:27:39;;;;;;;9.23;6.95;;;27.60;99.90;;;;;;5088200;28;20046;-57
2021/06/17 07:30:06;;;;;;;8.25;7.15;;;27.60;99.90;;;;;;5092275;28;20500;-57
2021/06/17 07:32:32;;;;;;;9.70;6.93;;;27.70;99.90;;;;;;5087781;28;20110;-57
2021/06/17 07:34:57;;;;;;;10.98;6.53;;;27.80;99.90;;;;;;5081435;28;20462;-57
2021/06/17 07:37:23;;;;;;;8.10;6.57;;;27.90;99.90;;;;;;5091594;28;20071;-57
2021/06/17 07:39:49;;;;;;;12.05;7.18;;;28.10;99.90;;;;;;5085440;28;20043;-57
2021/06/17 07:42:15;;;;;;;9.73;6.80;;;28.20;99.90;;;;;;5091929;28;20114;-57
2021/06/17 07:44:41;;;;;;;11.00;6.90;;;28.30;99.90;;;;;;5092031;28;20036;-57
2021/06/17 07:47:07;;;;;;;8.55;6.68;;;28.60;99.90;;;;;;5092170;28;20089;-57
2021/06/17 07:49:33;;;;;;;9.63;6.43;;;28.50;99.90;;;;;;5092158;28;20044;-58
2021/06/17 07:51:59;;;;;;;7.35;6.28;;;29.10;99.20;;;;;;5091899;28;20040;-57
2021/06/17 07:54:25;;;;;;;7.78;6.90;;;29.50;99.00;;;;;;5092086;28;20044;-58
2021/06/17 07:56:51;;;;;;;10.30;6.65;;;29.90;98.40;;;;;;5091880;28;20080;-57
2021/06/17 07:59:22;;;;;;;10.20;6.60;;;30.20;97.60;;;;;;5092080;28;20492;-58
2021/06/17 08:01:50;;;;;;;8.07;6.13;;;30.40;97.60;;;;;;5091829;28;20048;-58
2021/06/17 08:04:16;;;;;;;;;;;30.60;95.90;;;;;;5092597;28;20051;-57
2021/06/17 08:06:42;;;;;;;9.80;6.40;;;30.90;95.60;;;;;;5091243;28;19945;-58
2021/06/17 08:09:08;;;;;;;11.85;6.88;;;30.80;96.00;;;;;;5074191;28;20086;-58
2021/06/17 08:11:35;;;;;;;7.53;6.05;;;31.00;95.60;;;;;;5071114;28;20036;-58
2021/06/17 08:14:01;;;;;;;6.63;5.95;;;31.20;94.60;;;;;;5073350;28;20162;-58
2021/06/17 08:16:27;;;;;;;9.20;5.40;;;31.50;94.60;;;;;;5075389;28;20123;-59
2021/06/17 08:18:54;;;;;;;8.25;6.45;;;31.90;95.10;;;;;;5075228;28;20044;-59
2021/06/17 08:21:24;;;;;;;8.85;5.75;;;31.90;92.50;;;;;;5074780;28;20084;-58
2021/06/17 08:23:50;;;;;;;7.25;5.38;;;32.10;93.60;;;;;;5074074;28;20049;-58
2021/06/17 08:26:16;;;;;;;7.90;5.72;;;32.70;93.10;;;;;;5074096;28;20044;-58
2021/06/17 08:28:41;;;;;;;6.97;5.78;;;32.60;91.50;;;;;;5073792;28;20050;-57
2021/06/17 08:31:09;;;;;;;6.47;5.13;;;32.50;92.20;;;;;;5074861;28;20147;-58
2021/06/17 08:33:37;;;;;;;10.05;4.80;;;32.80;92.20;;;;;;5075117;28;20076;-58
2021/06/17 08:36:07;;;;;;;10.15;5.38;;;33.10;92.40;;;;;;5073734;28;20059;-58
2021/06/17 08:38:34;;;;;;;9.48;5.63;;;33.40;91.80;;;;;;5074868;28;20071;-59
2021/06/17 08:41:00;;;;;;;9.30;5.50;;;33.40;91.30;;;;;;5057066;28;20403;-58
2021/06/17 08:43:26;;;;;;;6.93;4.97;;;33.30;90.80;;;;;;5074688;28;20040;-58
2021/06/17 08:45:51;;;;;;;5.88;4.38;;;33.50;91.40;;;;;;5074775;28;20040;-58
2021/06/17 08:48:17;;;;;;;5.13;4.63;;;33.90;89.70;;;;;;5074656;28;20505;-58
2021/06/17 08:50:43;;;;;;;7.22;4.20;;;33.70;90.40;;;;;;5074604;28;20048;-58
2021/06/17 08:53:08;;;;;;;10.73;5.13;;;33.90;87.70;;;;;;5073588;28;20052;-58
2021/06/17 08:55:36;;;;;;;5.63;4.78;;;33.70;89.50;;;;;;5074483;28;20044;-59
2021/06/17 08:58:02;;;;;;;5.93;4.53;;;33.90;89.70;;;;;;5074509;28;20163;-58
2021/06/17 09:00:31;;;;;;;6.07;4.30;;;34.10;85.50;;;;;;5074438;28;20136;-58
2021/06/17 09:03:09;;;;;;;5.18;4.53;;;34.00;87.20;;;;;;5074677;28;20048;-58
2021/06/17 09:05:41;;;;;;;5.35;4.25;;;34.00;84.90;;;;;;5074222;28;20456;-58
2021/06/17 09:08:08;;;;;;;7.45;4.57;;;33.80;85.60;;;;;;5074349;28;20041;-58
2021/06/17 09:10:39;;;;;;;5.05;4.18;;;34.10;86.70;;;;;;5074245;28;20052;-58
2021/06/17 09:13:06;;;;;;;6.28;3.88;;;34.30;86.50;;;;;;5074608;28;20442;-58
2021/06/17 09:15:42;;;;;;;4.47;3.83;;;34.50;86.30;;;;;;5074311;28;20098;-58
2021/06/17 09:18:16;;;;;;;8.52;4.57;;;34.50;83.50;;;;;;5074286;28;20099;-58
2021/06/17 09:20:58;;;;;;;7.70;4.80;;;34.30;84.40;;;;;;5073735;28;20084;-59
2021/06/17 09:23:24;;;;;;;8.52;4.15;;;34.60;83.40;;;;;;5074115;28;20053;-59
2021/06/17 09:25:52;;;;;;;6.72;4.00;;;34.70;82.90;;;;;;5073329;28;20043;-58
2021/06/17 09:28:18;;;;;;;7.45;4.85;;;34.80;82.60;;;;;;5074010;28;20045;-58
2021/06/17 09:30:44;;;;;;;4.68;3.72;;;35.00;81.90;;;;;;5073831;28;20540;-59
2021/06/17 09:33:12;;;;;;;6.97;4.03;;;35.00;79.90;;;;;;5073630;28;20040;-58
2021/06/17 09:35:53;;;;;;;7.03;4.25;;;35.10;81.80;;;;;;5073610;28;20478;-59
2021/06/17 09:38:19;;;;;;;5.65;3.70;;;35.10;80.00;;;;;;5073912;28;20037;-58
2021/06/17 09:40:46;;;;;;;8.95;4.10;;;35.00;80.50;;;;;;5073683;28;20640;-58
2021/06/17 09:43:15;;;;;;;7.43;3.90;;;35.30;80.90;;;;;;5073853;28;20804;-58
2021/06/17 09:45:53;;;;;;;6.22;3.53;;;35.80;80.60;;;;;;5073504;28;20378;-58
2021/06/17 09:48:45;;;;;;;5.32;3.30;;;35.70;77.70;;;;;;5073728;28;20071;-59
2021/06/17 09:51:35;;;;;;;10.38;3.42;;;36.10;78.90;;;;;;5072297;28;20051;-59
2021/06/17 09:54:18;;;;;;;6.72;3.90;;;35.80;75.90;;;;;;5073409;28;20053;-58
2021/06/17 09:56:56;;;;;;;5.15;3.80;;;35.80;77.80;;;;;;5073516;28;20041;-59
2021/06/17 09:59:45;;;;;;;5.00;4.05;;;36.00;76.20;;;;;;5073413;28;20040;-58
2021/06/17 10:02:17;;;;;;;12.82;4.40;;;35.80;76.90;;;;;;5073263;28;20052;-59
2021/06/17 10:04:43;;;;;;;10.43;3.30;;;36.10;80.90;;;;;;5072962;28;20573;-58
2021/06/17 10:07:09;;;;;;;5.47;3.35;;;36.40;76.40;;;;;;5073388;28;20044;-58
2021/06/17 10:09:35;;;;;;;8.07;3.13;;;36.70;75.90;;;;;;5073286;28;20417;-59
2021/06/17 10:12:03;;;;;;;3.75;2.97;;;36.90;75.60;;;;;;5073064;28;20048;-59
2021/06/17 10:14:30;;;;;;;6.65;3.28;;;37.00;74.20;;;;;;5073083;28;20040;-58
2021/06/17 10:16:58;;;;;;;7.38;2.88;;;37.20;73.00;;;;;;5072925;28;20566;-59
2021/06/17 10:19:25;;;;;;;4.20;3.03;;;37.10;73.60;;;;;;5073065;28;20043;-59
2021/06/17 10:21:51;;;;;;;4.90;3.25;;;36.90;71.90;;;;;;5072437;28;20107;-58
2021/06/17 10:24:28;;;;;;;4.28;3.15;;;37.50;72.20;;;;;;5072927;28;20375;-58
2021/06/17 10:27:05;;;;;;;7.18;2.83;;;37.70;71.90;;;;;;5072874;28;20375;-59
2021/06/17 10:29:39;;;;;;;5.35;3.38;;;37.80;69.80;;;;;;5072641;28;20051;-58
2021/06/17 10:32:06;;;;;;;5.20;3.63;;;37.90;70.00;;;;;;5072509;28;20048;-59
2021/06/17 10:34:35;;;;;;;5.03;3.35;;;37.80;69.10;;;;;;5072812;28;20048;-59
2021/06/17 10:37:25;;;;;;;7.35;3.85;;;37.70;69.50;;;;;;5071719;28;20079;-59
2021/06/17 10:40:10;;;;;;;6.57;3.35;;;38.20;70.20;;;;;;5072486;28;20099;-59
2021/06/17 10:42:40;;;;;;;5.53;3.88;;;38.60;70.80;;;;;;5072356;28;20041;-58
2021/06/17 10:45:10;;;;;;;5.53;3.78;;;38.40;68.90;;;;;;5072542;28;20052;-58
2021/06/17 10:47:42;;;;;;;8.98;3.38;;;38.10;68.90;;;;;;5072798;28;20202;-58
2021/06/17 10:50:16;;;;;;;5.60;3.28;;;38.40;69.70;;;;;;5072283;28;20538;-59
2021/06/17 10:52:43;;;;;;;7.57;3.25;;;38.40;67.80;;;;;;5072202;28;20044;-58
2021/06/17 10:55:14;;;;;;;3.63;2.92;;;38.40;66.70;;;;;;5072352;28;20036;-58
2021/06/17 10:57:52;;;;;;;5.07;2.95;;;38.70;66.90;;;;;;5072179;28;20036;-58
2021/06/17 11:00:28;;;;;;;6.82;3.30;;;39.00;69.00;;;;;;5072216;28;20090;-59
2021/06/17 11:03:06;;;;;;;8.15;3.58;;;39.50;67.40;;;;;;5071982;28;20072;-59
2021/06/17 11:05:32;;;;;;;5.13;3.28;;;39.30;64.90;;;;;;5072321;28;20044;-59
2021/06/17 11:08:19;;;;;;;7.97;3.00;;;39.40;66.10;;;;;;5071936;28;20474;-59
2021/06/17 11:10:49;;;;;;;5.03;2.88;;;39.70;65.80;;;;;;5071922;28;20555;-58
2021/06/17 11:13:37;;;;;;;3.90;2.72;;;40.10;66.70;;;;;;5072091;28;20437;-58
2021/06/17 11:16:17;;;;;;;4.50;2.88;;;39.80;62.60;;;;;;5071966;28;20037;-58
2021/06/17 11:18:48;;;;;;;7.20;2.90;;;39.60;61.30;;;;;;5071990;28;20040;-58
2021/06/17 11:21:31;;;;;;;4.45;2.65;;;39.40;62.50;;;;;;5071691;28;20048;-59
2021/06/17 11:24:09;;;;;;;8.38;3.00;;;39.20;60.60;;;;;;5071973;28;20040;-59
2021/06/17 11:26:41;;;;;;;5.88;2.55;;;38.90;62.60;;;;;;5072008;28;20053;-59
2021/06/17 11:29:09;;;;;;;6.90;3.35;;;39.30;62.70;;;;;;5071693;28;20040;-59
2021/06/17 11:31:36;;;;;;;4.20;3.20;;;39.10;62.50;;;;;;5071783;28;20048;-59
2021/06/17 11:34:02;;;;;;;7.07;3.67;;;39.40;63.20;;;;;;5071825;28;20052;-58
2021/06/17 11:36:28;;;;;;;3.47;2.78;;;39.50;63.10;;;;;;5071622;28;20040;-58
2021/06/17 11:38:54;;;;;;;4.32;2.92;;;38.90;62.60;;;;;;5071837;28;20379;-59
2021/06/17 11:41:23;;;;;;;4.05;2.50;;;39.20;63.10;;;;;;5071801;28;20084;-58
2021/06/17 11:44:08;;;;;;;8.80;2.63;;;39.00;60.30;;;;;;5071681;28;20552;-59
2021/06/17 11:46:38;;;;;;;8.85;3.20;;;38.90;60.30;;;;;;5071597;28;20444;-59
2021/06/17 11:49:09;;;;;;;8.05;2.72;;;39.20;61.10;;;;;;5074049;28;20044;-58
2021/06/17 11:51:47;;;;;;;5.35;2.67;;;39.30;61.30;;;;;;5075670;28;20500;-59
2021/06/17 11:54:20;;;;;;;7.43;3.17;;;39.30;63.10;;;;;;5075890;28;20099;-58
2021/06/17 11:56:54;;;;;;;5.47;3.35;;;39.20;59.00;;;;;;5075755;28;20040;-59
2021/06/17 11:59:24;;;;;;;3.65;2.70;;;39.00;61.80;;;;;;5075694;28;20032;-59
2021/06/17 12:02:14;;;;;;;3.25;2.63;;;39.30;61.10;;;;;;5075658;28;20037;-58
2021/06/17 12:04:57;;;;;;;4.07;2.88;;;39.20;61.50;;;;;;5075452;28;20479;-59
2021/06/17 12:07:28;;;;;;;4.18;2.80;;;39.30;59.10;;;;;;5075549;28;20101;-59
2021/06/17 12:10:04;;;;;;;6.00;2.47;;;39.20;59.60;;;;;;5075580;28;20048;-58
2021/06/17 12:12:30;;;;;;;7.97;3.10;;;39.50;60.40;;;;;;5075581;28;20045;-59
2021/06/17 12:14:57;;;;;;;3.97;2.40;;;38.70;58.20;;;;;;5075460;28;20378;-58
2021/06/17 12:17:32;;;;;;;6.95;2.60;;;39.00;59.40;;;;;;5075270;28;20044;-58
2021/06/17 12:20:00;;;;;;;5.85;2.33;;;38.70;58.70;;;;;;5075296;28;20033;-58
2021/06/17 12:22:26;;;;;;;2.17;1.98;;;38.70;59.70;;;;;;5075228;28;20056;-58
2021/06/17 12:24:53;;;;;;;5.03;2.20;;;38.30;59.40;;;;;;5075260;28;20059;-59
2021/06/17 12:27:19;;;;;;;4.40;2.40;;;37.90;59.30;;;;;;5075054;28;20050;-59
2021/06/17 12:29:46;;;;;;;5.40;2.00;;;38.20;60.20;;;;;;5075109;28;20044;-58
2021/06/17 12:32:13;;;;;;;5.13;2.78;;;38.20;60.30;;;;;;5075055;28;20490;-59
2021/06/17 12:34:43;;;;;;;4.28;2.22;;;37.50;59.90;;;;;;5074819;28;20041;-58
2021/06/17 12:37:10;;;;;;;3.50;2.33;;;37.30;59.70;;;;;;5085593;28;20150;-58
2021/06/17 12:39:36;;;;;;;9.35;2.53;;;37.30;61.80;;;;;;5095524;28;20371;-60
2021/06/17 12:42:10;;;;;;;5.15;2.65;;;37.10;59.90;;;;;;5093954;28;20123;-58
2021/06/17 12:44:40;;;;;;;5.28;2.60;;;36.90;59.30;;;;;;5093575;28;20063;-59
2021/06/17 12:47:17;;;;;;;7.20;2.50;;;37.00;59.30;;;;;;5094902;28;20040;-58
2021/06/17 12:52:32;;;;;;;4.13;1.95;;;36.50;59.10;;;;;;5051699;28;20072;-58
2021/06/17 12:54:58;;;;;;;4.40;2.17;;;36.60;61.10;;;;;;5052230;28;20072;-59